createdAt,value
2022-10-17T00:00:34.696Z,101543.72
2022-10-17T00:03:02.805Z,101545.50
2022-10-17T00:05:31.827Z,101538.41
2022-10-17T00:07:59.484Z,101525.09
2022-10-17T00:10:27.152Z,101536.44
2022-10-17T00:12:54.794Z,101533.31
2022-10-17T00:15:23.034Z,101548.31
2022-10-17T00:17:50.814Z,101533.31
2022-10-17T00:20:18.647Z,101533.47
2022-10-17T00:22:47.643Z,101521.00
2022-10-17T00:25:15.312Z,101511.34
2022-10-17T00:27:43.392Z,101507.69
2022-10-17T00:30:13.276Z,101508.53
2022-10-17T00:32:41.193Z,101507.84
2022-10-17T00:35:09.807Z,101510.22
2022-10-17T00:37:37.464Z,101500.41
2022-10-17T00:40:08.153Z,101507.41
2022-10-17T00:42:35.953Z,101511.06
2022-10-17T00:45:15.022Z,101511.06
2022-10-17T00:47:43.067Z,101499.56
2022-10-17T00:50:10.852Z,101506.56
2022-10-17T00:52:38.729Z,101497.03
2022-10-17T00:55:11.494Z,101494.25
2022-10-17T00:57:40.169Z,101489.06
2022-10-17T01:00:10.618Z,101483.59
2022-10-17T01:02:38.842Z,101485.28
2022-10-17T01:05:07.681Z,101487.94
2022-10-17T01:07:37.266Z,101481.78
2022-10-17T01:10:06.289Z,101477.19
2022-10-17T01:12:42.860Z,101474.63
2022-10-17T01:15:14.315Z,101469.47
2022-10-17T01:17:52.109Z,101471.13
2022-10-17T01:20:44.220Z,101472.81
2022-10-17T01:23:24.764Z,101487.69
2022-10-17T01:25:57.108Z,101475.47
2022-10-17T01:31:13.798Z,101490.34
2022-10-17T01:33:48.733Z,101489.50
2022-10-17T01:36:26.287Z,101482.22
2022-10-17T01:39:00.280Z,101475.09
2022-10-17T01:41:36.049Z,101482.22
2022-10-17T01:44:08.978Z,101466.41
2022-10-17T01:46:39.498Z,101460.09
2022-10-17T01:49:09.623Z,101472.13
2022-10-17T01:51:39.284Z,101462.47
2022-10-17T01:54:11.907Z,101457.00
2022-10-17T01:56:40.534Z,101463.22
2022-10-17T01:59:12.697Z,101443.00
2022-10-17T02:01:43.014Z,101434.63
2022-10-17T02:04:11.742Z,101432.66
2022-10-17T02:06:39.772Z,101436.84
2022-10-17T02:09:21.964Z,101429.72
2022-10-17T02:12:03.574Z,101434.03
2022-10-17T02:14:39.325Z,101430.69
2022-10-17T02:17:12.363Z,101430.97
2022-10-17T02:19:48.062Z,101439.66
2022-10-17T02:22:20.970Z,101429.28
2022-10-17T02:24:51.396Z,101434.31
2022-10-17T02:27:26.613Z,101423.69
2022-10-17T02:29:58.454Z,101425.38
2022-10-17T02:32:32.744Z,101424.53
2022-10-17T02:35:01.862Z,101418.38
2022-10-17T02:37:31.566Z,101410.06
2022-10-17T02:40:00.770Z,101423.69
2022-10-17T02:42:29.472Z,101415.69
2022-10-17T02:45:01.018Z,101412.19
2022-10-17T02:47:33.832Z,101414.72
2022-10-17T02:50:02.242Z,101402.53
2022-10-17T02:52:33.523Z,101419.19
2022-10-17T02:55:05.102Z,101410.53
2022-10-17T02:57:37.265Z,101427.03
2022-10-17T03:00:07.150Z,101428.72
2022-10-17T03:02:42.395Z,101432.38
2022-10-17T03:05:10.695Z,101427.75
2022-10-17T03:07:38.365Z,101434.78
2022-10-17T03:10:06.909Z,101431.38
2022-10-17T03:12:34.682Z,101418.38
2022-10-17T03:15:02.330Z,101430.41
2022-10-17T03:17:29.914Z,101420.75
2022-10-17T03:19:59.166Z,101407.19
2022-10-17T03:22:27.048Z,101410.81
2022-10-17T03:24:54.890Z,101424.81
2022-10-17T03:27:22.619Z,101418.66
2022-10-17T03:29:50.282Z,101423.69
2022-10-17T03:32:17.945Z,101418.38
2022-10-17T03:34:45.745Z,101419.06
2022-10-17T03:37:14.946Z,101407.59
2022-10-17T03:39:42.599Z,101413.91
2022-10-17T03:42:10.259Z,101412.91
2022-10-17T03:44:37.929Z,101415.56
2022-10-17T03:47:08.096Z,101416.41
2022-10-17T03:49:38.227Z,101418.97
2022-10-17T03:52:05.983Z,101422.31
2022-10-17T03:54:34.915Z,101415.03
2022-10-17T03:57:02.774Z,101415.88
2022-10-17T03:59:30.486Z,101417.44
2022-10-17T04:01:58.165Z,101424.44
2022-10-17T04:04:25.914Z,101420.09
2022-10-17T04:06:53.511Z,101429.63
2022-10-17T04:09:21.106Z,101431.28
2022-10-17T04:11:50.153Z,101435.50
2022-10-17T04:14:17.856Z,101428.50
2022-10-17T04:16:45.470Z,101423.88
2022-10-17T04:19:14.221Z,101431.59
2022-10-17T04:21:41.928Z,101427.09
2022-10-17T04:24:11.597Z,101423.59
2022-10-17T04:26:39.320Z,101425.97
2022-10-17T04:29:08.368Z,101438.31
2022-10-17T04:31:35.995Z,101435.53
2022-10-17T04:34:03.656Z,101424.88
2022-10-17T04:36:31.285Z,101425.56
2022-10-17T04:38:58.938Z,101423.75
2022-10-17T04:41:26.962Z,101399.78
2022-10-17T04:43:54.928Z,101404.81
2022-10-17T04:46:24.030Z,101396.81
2022-10-17T04:48:51.652Z,101399.38
2022-10-17T04:51:21.972Z,101400.22
2022-10-17T04:53:52.214Z,101403.56
2022-10-17T04:56:21.556Z,101409.44
2022-10-17T04:58:49.418Z,101405.81
2022-10-17T05:01:19.175Z,101408.06
2022-10-17T05:03:48.561Z,101422.34
2022-10-17T05:06:18.149Z,101412.69
2022-10-17T05:08:46.164Z,101413.38
2022-10-17T05:11:21.379Z,101414.06
2022-10-17T05:13:52.259Z,101412.13
2022-10-17T05:16:19.954Z,101407.78
2022-10-17T05:18:52.914Z,101420.13
2022-10-17T05:21:21.734Z,101424.59
2022-10-17T05:23:49.474Z,101442.81
2022-10-17T05:26:17.266Z,101438.47
2022-10-17T05:28:45.058Z,101443.66
2022-10-17T05:31:13.178Z,101439.16
2022-10-17T05:33:41.109Z,101441.81
2022-10-17T05:36:10.473Z,101443.38
2022-10-17T05:38:38.126Z,101451.25
2022-10-17T05:41:06.772Z,101454.59
2022-10-17T05:43:35.108Z,101453.63
2022-10-17T05:46:05.372Z,101447.31
2022-10-17T05:48:33.054Z,101455.31
2022-10-17T05:51:01.405Z,101461.38
2022-10-17T05:53:33.359Z,101462.06
2022-10-17T05:56:02.173Z,101468.09
2022-10-17T05:58:49.110Z,101471.72
2022-10-17T06:01:17.820Z,101467.25
2022-10-17T06:03:45.444Z,101470.59
2022-10-17T06:06:14.586Z,101455.44
2022-10-17T06:08:43.967Z,101464.16
2022-10-17T06:11:11.674Z,101471.44
2022-10-17T06:13:39.631Z,101474.00
2022-10-17T06:16:07.882Z,101474.81
2022-10-17T06:18:35.636Z,101481.84
2022-10-17T06:21:04.210Z,101479.44
2022-10-17T06:23:31.921Z,101487.16
2022-10-17T06:26:02.396Z,101487.16
2022-10-17T06:28:30.446Z,101500.50
2022-10-17T06:30:58.183Z,101499.50
2022-10-17T06:33:25.973Z,101485.19
2022-10-17T06:35:53.762Z,101508.19
2022-10-17T06:38:21.615Z,101502.84
2022-10-17T06:40:49.226Z,101496.44
2022-10-17T06:43:18.286Z,101506.94
2022-10-17T06:45:47.422Z,101493.63
2022-10-17T06:48:15.482Z,101491.66
2022-10-17T06:50:43.197Z,101487.59
2022-10-17T06:53:10.863Z,101499.34
2022-10-17T06:55:38.507Z,101517.06
2022-10-17T06:58:06.151Z,101503.97
2022-10-17T07:00:35.541Z,101506.25
2022-10-17T07:03:03.332Z,101502.28
2022-10-17T07:05:30.970Z,101501.19
2022-10-17T07:07:58.650Z,101501.72
2022-10-17T07:10:27.491Z,101510.16
2022-10-17T07:12:55.115Z,101512.69
2022-10-17T07:15:22.865Z,101514.94
2022-10-17T07:17:51.900Z,101518.81
2022-10-17T07:20:19.573Z,101524.75
2022-10-17T07:22:47.257Z,101528.94
2022-10-17T07:25:14.986Z,101535.69
2022-10-17T07:27:42.644Z,101528.38
2022-10-17T07:30:11.660Z,101523.72
2022-10-17T07:32:39.299Z,101527.81
2022-10-17T07:35:08.913Z,101522.47
2022-10-17T07:37:36.753Z,101523.84
2022-10-17T07:40:04.994Z,101528.75
2022-10-17T07:42:32.651Z,101524.13
2022-10-17T07:45:00.623Z,101538.88
2022-10-17T07:47:31.302Z,101541.09
2022-10-17T07:49:59.440Z,101538.97
2022-10-17T07:52:28.735Z,101543.88
2022-10-17T07:54:56.508Z,101546.28
2022-10-17T07:57:24.163Z,101546.84
2022-10-17T07:59:51.872Z,101544.31
2022-10-17T08:02:23.763Z,101549.91
2022-10-17T08:04:51.476Z,101558.19
2022-10-17T08:07:24.094Z,101561.13
2022-10-17T08:09:56.084Z,101554.34
2022-10-17T08:12:25.014Z,101551.75
2022-10-17T08:14:52.669Z,101557.53
2022-10-17T08:17:20.302Z,101566.94
2022-10-17T08:19:47.975Z,101565.78
2022-10-17T08:22:15.627Z,101558.47
2022-10-17T08:24:44.487Z,101552.13
2022-10-17T08:27:13.795Z,101567.16
2022-10-17T08:29:42.057Z,101575.03
2022-10-17T08:32:10.468Z,101581.34
2022-10-17T08:34:38.182Z,101592.75
2022-10-17T08:37:06.068Z,101599.09
2022-10-17T08:39:33.798Z,101592.75
2022-10-17T08:42:10.373Z,101595.69
2022-10-17T08:44:49.867Z,101589.66
2022-10-17T08:47:22.045Z,101598.38
2022-10-17T08:49:52.517Z,101607.38
2022-10-17T08:52:25.988Z,101607.69
2022-10-17T08:54:53.681Z,101630.41
2022-10-17T08:57:21.441Z,101644.59
2022-10-17T08:59:53.613Z,101650.78
2022-10-17T09:02:40.175Z,101645.06
2022-10-17T09:05:26.853Z,101649.00
2022-10-17T09:08:00.090Z,101657.38
2022-10-17T09:10:35.179Z,101657.22
2022-10-17T09:13:11.423Z,101650.06
2022-10-17T09:15:47.274Z,101637.25
2022-10-17T09:18:21.186Z,101653.97
2022-10-17T09:20:52.857Z,101665.22
2022-10-17T09:23:23.671Z,101663.41
2022-10-17T09:25:54.140Z,101667.44
2022-10-17T09:28:23.367Z,101669.13
2022-10-17T09:30:57.051Z,101680.66
2022-10-17T09:33:35.196Z,101701.19
2022-10-17T09:36:14.656Z,101720.03
2022-10-17T09:38:44.406Z,101734.53
2022-10-17T09:41:44.439Z,101716.41
2022-10-17T09:44:15.424Z,101709.38
2022-10-17T09:46:50.578Z,101720.06
2022-10-17T09:49:20.788Z,101717.69
2022-10-17T09:51:49.315Z,101716.84
2022-10-17T09:54:21.934Z,101711.66
2022-10-17T09:57:01.460Z,101714.03
2022-10-17T09:59:34.007Z,101701.25
2022-10-17T10:02:19.770Z,101702.78
2022-10-17T10:05:10.570Z,101700.97
2022-10-17T10:07:39.613Z,101728.66
2022-10-17T10:10:09.881Z,101739.50
2022-10-17T10:12:39.543Z,101738.94
2022-10-17T10:15:32.080Z,101729.97
2022-10-17T10:18:01.239Z,101749.59
2022-10-17T10:20:32.800Z,101781.66
2022-10-17T10:23:15.939Z,101812.03
2022-10-17T10:25:53.871Z,101816.53
2022-10-17T10:28:23.456Z,101810.63
2022-10-17T10:30:52.705Z,101811.75
2022-10-17T10:33:23.826Z,101830.31
2022-10-17T10:35:57.771Z,101849.13
2022-10-17T10:38:25.541Z,101800.38
2022-10-17T10:40:55.361Z,101760.63
2022-10-17T10:43:26.311Z,101737.28
2022-10-17T10:45:54.404Z,101728.28
2022-10-17T10:48:25.049Z,101693.88
2022-10-17T10:50:55.597Z,101724.63
2022-10-17T10:53:44.289Z,101758.91
2022-10-17T10:56:15.772Z,101763.16
2022-10-17T10:58:52.103Z,101770.31
2022-10-17T11:01:25.243Z,101761.34
2022-10-17T11:04:07.963Z,101788.28
2022-10-17T11:06:37.576Z,101796.28
2022-10-17T11:09:14.399Z,101782.94
2022-10-17T11:11:44.922Z,101778.59
2022-10-17T11:14:16.212Z,101772.41
2022-10-17T11:16:48.369Z,101762.88
2022-10-17T11:19:21.928Z,101759.06
2022-10-17T11:21:53.486Z,101782.41
2022-10-17T11:24:25.523Z,101787.88
2022-10-17T11:26:56.747Z,101811.19
2022-10-17T11:29:28.493Z,101818.25
2022-10-17T11:31:57.872Z,101804.47
2022-10-17T11:34:28.434Z,101804.16
2022-10-17T11:36:58.401Z,101815.28
2022-10-17T11:39:31.377Z,101806.13
2022-10-17T11:42:03.522Z,101812.06
2022-10-17T11:44:35.681Z,101803.59
2022-10-17T11:47:07.674Z,101807.25
2022-10-17T11:49:41.853Z,101810.63
2022-10-17T11:52:37.786Z,101829.75
2022-10-17T11:55:13.699Z,101835.78
2022-10-17T11:57:54.047Z,101839.31
2022-10-17T12:00:32.650Z,101847.31
2022-10-17T12:03:08.492Z,101843.41
2022-10-17T12:05:42.570Z,101832.84
2022-10-17T12:08:13.998Z,101838.91
2022-10-17T12:10:47.592Z,101837.63
2022-10-17T12:13:50.104Z,101842.00
2022-10-17T12:16:51.011Z,101845.34
2022-10-17T12:19:39.802Z,101851.69
2022-10-17T12:22:20.792Z,101849.13
2022-10-17T12:24:57.074Z,101849.03
2022-10-17T12:27:39.339Z,101854.34
2022-10-17T12:30:17.017Z,101853.38
2022-10-17T12:33:07.447Z,101851.53
2022-10-17T12:35:37.116Z,101854.34
2022-10-17T12:38:30.165Z,101856.03
2022-10-17T12:40:59.936Z,101855.91
2022-10-17T12:43:56.076Z,101856.75
2022-10-17T12:46:47.305Z,101853.94
2022-10-17T12:49:37.834Z,101863.91
2022-10-17T12:52:27.483Z,101861.53
2022-10-17T12:55:12.014Z,101869.41
2022-10-17T12:57:53.059Z,101867.81
2022-10-17T13:00:24.548Z,101873.75
2022-10-17T13:02:54.607Z,101868.69
2022-10-17T13:05:28.303Z,101869.53
2022-10-17T13:07:56.794Z,101877.41
2022-10-17T13:10:28.225Z,101876.41
2022-10-17T13:13:08.506Z,101879.94
2022-10-17T13:15:37.322Z,101880.63
2022-10-17T13:18:06.067Z,101882.31
2022-10-17T13:20:33.974Z,101890.31
2022-10-17T13:23:01.711Z,101894.72
2022-10-17T13:25:31.009Z,101894.72
2022-10-17T13:28:07.999Z,101894.81
2022-10-17T13:30:36.886Z,101898.47
2022-10-17T13:33:05.333Z,101899.47
2022-10-17T13:35:55.715Z,101888.09
2022-10-17T13:38:25.866Z,101902.13
2022-10-17T13:41:01.703Z,101898.63
2022-10-17T13:43:38.959Z,101902.97
2022-10-17T13:46:32.304Z,101903.81
2022-10-17T13:48:55.298Z,101899.19
2022-10-17T13:51:23.289Z,101913.25
2022-10-17T13:53:50.950Z,101913.25
2022-10-17T13:56:28.226Z,101923.94
2022-10-17T13:58:57.922Z,101924.19
2022-10-17T14:01:26.974Z,101928.56
2022-10-17T14:04:07.693Z,101925.88
2022-10-17T14:06:39.293Z,101924.94
2022-10-17T14:09:08.923Z,101936.31
2022-10-17T14:11:39.622Z,101930.97
2022-10-17T14:14:08.859Z,101945.03
2022-10-17T14:16:39.176Z,101932.66
2022-10-17T14:19:08.095Z,101931.81
2022-10-17T14:21:43.709Z,101935.31
2022-10-17T14:24:31.458Z,101930.13
2022-10-17T14:27:01.298Z,101934.63
2022-10-17T14:29:30.854Z,101939.97
2022-10-17T14:32:00.503Z,101941.91
2022-10-17T14:34:31.528Z,101939.97
2022-10-17T14:36:59.382Z,101947.00
2022-10-17T14:39:28.764Z,101948.13
2022-10-17T14:41:58.724Z,101948.13
2022-10-17T14:44:33.474Z,101957.38
2022-10-17T14:47:18.152Z,101967.22
2022-10-17T14:49:51.285Z,101963.72
2022-10-17T14:52:32.785Z,101975.25
2022-10-17T14:55:02.479Z,101984.09
2022-10-17T14:57:42.308Z,101984.09
2022-10-17T15:00:15.495Z,101975.94
2022-10-17T15:02:43.226Z,101987.47
2022-10-17T15:05:13.488Z,102003.50
2022-10-17T15:07:41.513Z,102004.34
2022-10-17T15:10:22.401Z,102008.69
2022-10-17T15:12:57.564Z,102005.06
2022-10-17T15:15:29.265Z,102009.69
2022-10-17T15:17:56.932Z,102014.91
2022-10-17T15:20:27.913Z,102013.06
2022-10-17T15:22:56.248Z,102011.38
2022-10-17T15:25:24.230Z,102018.41
2022-10-17T15:27:51.923Z,102022.91
2022-10-17T15:30:22.789Z,102019.81
2022-10-17T15:32:53.451Z,102025.44
2022-10-17T15:35:21.974Z,102031.63
2022-10-17T15:37:50.373Z,102026.28
2022-10-17T15:40:19.544Z,102032.47
2022-10-17T15:42:47.370Z,102031.78
2022-10-17T15:45:21.577Z,102023.75
2022-10-17T15:47:53.798Z,102031.03
2022-10-17T15:50:22.572Z,102024.59
2022-10-17T15:52:52.222Z,102032.72
2022-10-17T15:55:20.006Z,102025.00
2022-10-17T15:57:49.070Z,102032.72
2022-10-17T16:00:18.434Z,102024.00
2022-10-17T16:02:46.538Z,102033.84
2022-10-17T16:05:18.033Z,102027.97
2022-10-17T16:07:46.867Z,102034.00
2022-10-17T16:10:15.043Z,102031.31
2022-10-17T16:12:43.344Z,102034.84
2022-10-17T16:15:15.964Z,102029.91
2022-10-17T16:17:43.975Z,102041.16
2022-10-17T16:20:12.653Z,102034.97
2022-10-17T16:22:43.642Z,102042.56
2022-10-17T16:25:20.153Z,102047.88
2022-10-17T16:27:48.407Z,102058.56
2022-10-17T16:30:16.657Z,102048.72
2022-10-17T16:32:44.412Z,102062.22
2022-10-17T16:35:17.705Z,102058.00
2022-10-17T16:37:47.510Z,102066.13
2022-10-17T16:40:15.780Z,102066.13
2022-10-17T16:42:43.763Z,102064.59
2022-10-17T16:45:16.983Z,102075.94
2022-10-17T16:47:44.709Z,102081.97
2022-10-17T16:50:12.580Z,102100.66
2022-10-17T16:52:40.237Z,102102.63
2022-10-17T16:55:10.885Z,102109.94
2022-10-17T16:57:38.745Z,102111.63
2022-10-17T17:00:08.002Z,102095.28
2022-10-17T17:02:35.742Z,102112.75
2022-10-17T17:05:03.434Z,102126.22
2022-10-17T17:07:31.326Z,102124.53
2022-10-17T17:09:59.247Z,102126.50
2022-10-17T17:12:28.318Z,102130.84
2022-10-17T17:14:55.950Z,102130.13
2022-10-17T17:17:36.913Z,102122.13
2022-10-17T17:20:11.428Z,102136.47
2022-10-17T17:22:39.933Z,102133.78
2022-10-17T17:25:08.086Z,102132.34
2022-10-17T17:27:37.117Z,102126.16
2022-10-17T17:30:05.238Z,102140.50
2022-10-17T17:32:33.858Z,102129.94
2022-10-17T17:35:01.527Z,102140.50
2022-10-17T17:37:29.590Z,102140.50
2022-10-17T17:39:57.437Z,102142.31
2022-10-17T17:42:25.126Z,102147.66
2022-10-17T17:44:54.194Z,102139.06
2022-10-17T17:47:21.779Z,102142.97
2022-10-17T17:49:49.425Z,102153.50
2022-10-17T17:52:17.143Z,102150.13
2022-10-17T17:54:45.581Z,102154.75
2022-10-17T17:57:13.296Z,102152.19
2022-10-17T17:59:41.475Z,102152.44
2022-10-17T18:02:10.897Z,102158.91
2022-10-17T18:04:38.686Z,102160.59
2022-10-17T18:07:06.454Z,102165.91
2022-10-17T18:09:34.199Z,102162.53
2022-10-17T18:12:01.879Z,102173.22
2022-10-17T18:14:29.565Z,102183.91
2022-10-17T18:16:57.201Z,102171.50
2022-10-17T18:19:28.190Z,102180.47
2022-10-17T18:21:55.859Z,102177.81
2022-10-17T18:24:23.478Z,102179.63
2022-10-17T18:26:53.873Z,102177.94
2022-10-17T18:29:21.570Z,102180.47
2022-10-17T18:31:49.165Z,102178.78
2022-10-17T18:34:16.768Z,102187.78
2022-10-17T18:36:45.837Z,102174.22
2022-10-17T18:39:13.455Z,102176.84
2022-10-17T18:41:41.074Z,102181.47
2022-10-17T18:44:08.739Z,102191.91
2022-10-17T18:46:40.798Z,102192.97
2022-10-17T18:49:09.062Z,102204.25
2022-10-17T18:51:36.790Z,102202.44
2022-10-17T18:54:05.861Z,102206.94
2022-10-17T18:56:33.537Z,102202.56
2022-10-17T18:59:02.118Z,102211.44
2022-10-17T19:01:29.733Z,102205.25
2022-10-17T19:03:59.168Z,102192.63
2022-10-17T19:06:28.180Z,102207.31
2022-10-17T19:08:56.023Z,102208.28
2022-10-17T19:11:26.804Z,102195.31
2022-10-17T19:13:54.991Z,102195.06
2022-10-17T19:16:24.816Z,102204.06
2022-10-17T19:18:53.096Z,102210.38
2022-10-17T19:21:22.054Z,102205.03
2022-10-17T19:23:51.532Z,102200.78
2022-10-17T19:26:20.026Z,102209.41
2022-10-17T19:28:52.081Z,102226.47
2022-10-17T19:31:26.215Z,102229.06
2022-10-17T19:33:54.868Z,102217.50
2022-10-17T19:36:25.401Z,102209.50
2022-10-17T19:38:55.622Z,102207.72
2022-10-17T19:41:23.659Z,102221.16
2022-10-17T19:43:52.994Z,102222.00
2022-10-17T19:46:27.213Z,102208.22
2022-10-17T19:48:54.858Z,102230.00
2022-10-17T19:51:24.364Z,102221.16
2022-10-17T19:53:52.946Z,102232.94
2022-10-17T19:56:21.054Z,102239.97
2022-10-17T19:58:49.348Z,102237.28
2022-10-17T20:01:20.182Z,102238.28
2022-10-17T20:03:47.968Z,102235.72
2022-10-17T20:06:16.129Z,102241.91
2022-10-17T20:08:44.070Z,102245.56
2022-10-17T20:11:13.759Z,102258.78
2022-10-17T20:13:41.744Z,102266.63
2022-10-17T20:16:16.583Z,102268.47
2022-10-17T20:18:45.671Z,102276.34
2022-10-17T20:21:15.665Z,102279.00
2022-10-17T20:23:43.777Z,102277.31
2022-10-17T20:26:33.181Z,102279.97
2022-10-17T20:29:08.553Z,102289.69
2022-10-17T20:31:36.415Z,102281.53
2022-10-17T20:34:05.360Z,102285.09
2022-10-17T20:36:36.981Z,102271.97
2022-10-17T20:39:06.277Z,102291.38
2022-10-17T20:41:34.516Z,102288.69
2022-10-17T20:44:02.141Z,102292.22
2022-10-17T20:46:39.682Z,102314.66
2022-10-17T20:49:15.975Z,102291.38
2022-10-17T20:51:44.005Z,102293.31
2022-10-17T20:54:11.699Z,102304.00
2022-10-17T20:56:39.827Z,102303.28
2022-10-17T20:59:09.165Z,102313.25
2022-10-17T21:01:37.013Z,102308.75
2022-10-17T21:04:26.907Z,102312.00
2022-10-17T21:06:54.492Z,102314.81
2022-10-17T21:09:22.928Z,102308.47
2022-10-17T21:11:55.019Z,102315.66
2022-10-17T21:14:23.645Z,102312.97
2022-10-17T21:16:52.224Z,102320.97
2022-10-17T21:19:21.574Z,102310.56
2022-10-17T21:21:49.222Z,102322.94
2022-10-17T21:24:20.450Z,102324.75
2022-10-17T21:26:50.091Z,102329.25
2022-10-17T21:29:17.851Z,102325.00
2022-10-17T21:31:45.644Z,102330.19
2022-10-17T21:34:15.289Z,102331.44
2022-10-17T21:36:44.066Z,102338.47
2022-10-17T21:39:12.231Z,102338.47
2022-10-17T21:41:41.822Z,102347.44
2022-10-17T21:44:13.201Z,102331.44
2022-10-17T21:46:40.853Z,102328.91
2022-10-17T21:49:08.521Z,102329.88
2022-10-17T21:51:36.170Z,102340.63
2022-10-17T21:54:05.695Z,102338.94
2022-10-17T21:56:34.708Z,102339.22
2022-10-17T21:59:04.833Z,102340.31
2022-10-17T22:01:34.369Z,102342.97
2022-10-17T22:04:03.738Z,102347.56
2022-10-17T22:06:39.688Z,102355.81
2022-10-17T22:09:10.307Z,102355.09
2022-10-17T22:11:38.139Z,102343.59
2022-10-17T22:14:08.635Z,102347.31
2022-10-17T22:16:36.457Z,102339.47
2022-10-17T22:19:06.675Z,102338.47
2022-10-17T22:21:35.537Z,102348.31
2022-10-17T22:24:04.975Z,102345.75
2022-10-17T22:26:34.444Z,102338.97
2022-10-17T22:29:02.504Z,102353.91
2022-10-17T22:31:31.636Z,102359.22
2022-10-17T22:33:59.262Z,102358.47
2022-10-17T22:36:26.983Z,102358.47
2022-10-17T22:38:54.693Z,102361.16
2022-10-17T22:41:23.209Z,102347.81
2022-10-17T22:43:50.906Z,102341.75
2022-10-17T22:46:18.577Z,102353.53
2022-10-17T22:48:47.622Z,102351.56
2022-10-17T22:51:15.495Z,102350.72
2022-10-17T22:53:43.272Z,102350.59
2022-10-17T22:56:12.851Z,102348.91
2022-10-17T22:58:40.808Z,102351.44
2022-10-17T23:01:09.483Z,102362.88
2022-10-17T23:03:37.147Z,102359.09
2022-10-17T23:06:06.499Z,102351.09
2022-10-17T23:08:34.174Z,102347.47
2022-10-17T23:11:01.822Z,102356.19
2022-10-17T23:13:29.468Z,102366.84
2022-10-17T23:15:58.373Z,102354.25
2022-10-17T23:18:26.973Z,102360.44
2022-10-17T23:20:55.130Z,102352.19
2022-10-17T23:23:24.457Z,102352.31
2022-10-17T23:25:52.112Z,102344.19
2022-10-17T23:28:19.931Z,102341.63
2022-10-17T23:30:47.587Z,102340.53
2022-10-17T23:33:15.543Z,102345.75
2022-10-17T23:35:43.192Z,102348.41
2022-10-17T23:38:10.867Z,102353.75
2022-10-17T23:40:39.886Z,102351.22
2022-10-17T23:43:07.578Z,102346.97
2022-10-17T23:45:37.156Z,102345.03
2022-10-17T23:48:05.664Z,102360.06
2022-10-17T23:50:33.320Z,102364.41
2022-10-17T23:53:00.897Z,102366.97
2022-10-17T23:55:28.743Z,102362.59
2022-10-17T23:57:57.773Z,102357.25
